sensor_id;sensor_type;location;lat;lon;timestamp;temperature;humidity
29547;DHT22;40782;47.264;11.330;2024-02-28T00:00:16;5.50;99.90
29547;DHT22;40782;47.264;11.330;2024-02-28T00:02:44;5.50;99.90
29547;DHT22;40782;47.264;11.330;2024-02-28T00:05:11;5.40;99.90
29547;DHT22;40782;47.264;11.330;2024-02-28T00:07:39;5.40;99.90
29547;DHT22;40782;47.264;11.330;2024-02-28T00:10:06;5.40;99.90
29547;DHT22;40782;47.264;11.330;2024-02-28T00:12:34;5.40;99.90
29547;DHT22;40782;47.264;11.330;2024-02-28T00:15:01;5.40;99.90
29547;DHT22;40782;47.264;11.330;2024-02-28T00:17:29;5.40;99.90
29547;DHT22;40782;47.264;11.330;2024-02-28T00:19:58;5.40;99.90
29547;DHT22;40782;47.264;11.330;2024-02-28T00:22:25;5.30;99.90
29547;DHT22;40782;47.264;11.330;2024-02-28T00:24:52;5.30;99.90
29547;DHT22;40782;47.264;11.330;2024-02-28T00:27:19;5.30;99.90
29547;DHT22;40782;47.264;11.330;2024-02-28T00:29:46;5.30;99.90
29547;DHT22;40782;47.264;11.330;2024-02-28T00:32:13;5.30;99.90
29547;DHT22;40782;47.264;11.330;2024-02-28T00:34:40;5.30;99.90
29547;DHT22;40782;47.264;11.330;2024-02-28T00:37:09;5.30;99.90
29547;DHT22;40782;47.264;11.330;2024-02-28T00:39:36;5.30;99.90
29547;DHT22;40782;47.264;11.330;2024-02-28T00:42:03;5.30;99.90
29547;DHT22;40782;47.264;11.330;2024-02-28T00:44:31;5.30;99.90
29547;DHT22;40782;47.264;11.330;2024-02-28T00:46:58;5.30;99.90
29547;DHT22;40782;47.264;11.330;2024-02-28T00:49:25;5.40;99.90
29547;DHT22;40782;47.264;11.330;2024-02-28T00:51:52;5.30;99.90
29547;DHT22;40782;47.264;11.330;2024-02-28T00:54:21;5.30;99.90
29547;DHT22;40782;47.264;11.330;2024-02-28T00:56:49;5.30;99.90
29547;DHT22;40782;47.264;11.330;2024-02-28T00:59:16;5.30;99.90
29547;DHT22;40782;47.264;11.330;2024-02-28T01:01:44;5.30;99.90
29547;DHT22;40782;47.264;11.330;2024-02-28T01:04:11;5.30;99.90
29547;DHT22;40782;47.264;11.330;2024-02-28T01:06:38;5.40;99.90
29547;DHT22;40782;47.264;11.330;2024-02-28T01:09:06;5.40;99.90
29547;DHT22;40782;47.264;11.330;2024-02-28T01:11:34;5.40;99.90
29547;DHT22;40782;47.264;11.330;2024-02-28T01:14:02;5.50;99.90
29547;DHT22;40782;47.264;11.330;2024-02-28T01:16:29;5.50;99.90
29547;DHT22;40782;47.264;11.330;2024-02-28T01:18:56;5.50;99.90
29547;DHT22;40782;47.264;11.330;2024-02-28T01:21:23;5.60;99.90
29547;DHT22;40782;47.264;11.330;2024-02-28T01:23:51;5.60;99.90
29547;DHT22;40782;47.264;11.330;2024-02-28T01:26:18;5.60;99.90
29547;DHT22;40782;47.264;11.330;2024-02-28T01:28:49;5.60;99.90
29547;DHT22;40782;47.264;11.330;2024-02-28T01:31:17;5.70;99.90
29547;DHT22;40782;47.264;11.330;2024-02-28T01:33:44;5.70;99.90
29547;DHT22;40782;47.264;11.330;2024-02-28T01:36:13;5.60;99.90
29547;DHT22;40782;47.264;11.330;2024-02-28T01:38:40;5.60;99.90
29547;DHT22;40782;47.264;11.330;2024-02-28T01:41:08;5.60;99.90
29547;DHT22;40782;47.264;11.330;2024-02-28T01:43:35;5.50;99.90
29547;DHT22;40782;47.264;11.330;2024-02-28T01:46:05;5.50;99.90
29547;DHT22;40782;47.264;11.330;2024-02-28T01:48:34;5.50;99.90
29547;DHT22;40782;47.264;11.330;2024-02-28T01:51:02;5.50;99.90
29547;DHT22;40782;47.264;11.330;2024-02-28T01:53:29;5.60;99.90
29547;DHT22;40782;47.264;11.330;2024-02-28T01:55:57;5.60;99.90
29547;DHT22;40782;47.264;11.330;2024-02-28T01:58:24;5.50;99.90
29547;DHT22;40782;47.264;11.330;2024-02-28T02:00:51;5.50;99.90
29547;DHT22;40782;47.264;11.330;2024-02-28T02:03:20;5.50;99.90
29547;DHT22;40782;47.264;11.330;2024-02-28T02:05:48;5.50;99.90
29547;DHT22;40782;47.264;11.330;2024-02-28T02:08:15;5.50;99.90
29547;DHT22;40782;47.264;11.330;2024-02-28T02:10:42;5.50;99.90
29547;DHT22;40782;47.264;11.330;2024-02-28T02:13:09;5.50;99.90
29547;DHT22;40782;47.264;11.330;2024-02-28T02:15:36;5.50;99.90
29547;DHT22;40782;47.264;11.330;2024-02-28T02:18:04;5.50;99.90
29547;DHT22;40782;47.264;11.330;2024-02-28T02:20:36;5.60;99.90
29547;DHT22;40782;47.264;11.330;2024-02-28T02:23:06;5.60;99.90
29547;DHT22;40782;47.264;11.330;2024-02-28T02:25:34;5.60;99.90
29547;DHT22;40782;47.264;11.330;2024-02-28T02:28:01;5.60;99.90
29547;DHT22;40782;47.264;11.330;2024-02-28T02:30:28;5.60;99.90
29547;DHT22;40782;47.264;11.330;2024-02-28T02:32:55;5.70;99.90
29547;DHT22;40782;47.264;11.330;2024-02-28T02:35:22;5.70;99.90
29547;DHT22;40782;47.264;11.330;2024-02-28T02:37:50;5.70;99.90
29547;DHT22;40782;47.264;11.330;2024-02-28T02:40:19;5.70;99.90
29547;DHT22;40782;47.264;11.330;2024-02-28T02:42:46;5.70;99.90
29547;DHT22;40782;47.264;11.330;2024-02-28T02:45:13;5.80;99.90
29547;DHT22;40782;47.264;11.330;2024-02-28T02:47:40;5.80;99.90
29547;DHT22;40782;47.264;11.330;2024-02-28T02:50:09;5.80;99.90
29547;DHT22;40782;47.264;11.330;2024-02-28T02:52:37;5.80;99.90
29547;DHT22;40782;47.264;11.330;2024-02-28T02:55:05;5.80;99.90
29547;DHT22;40782;47.264;11.330;2024-02-28T02:57:35;5.70;99.90
29547;DHT22;40782;47.264;11.330;2024-02-28T03:00:02;5.70;99.90
29547;DHT22;40782;47.264;11.330;2024-02-28T03:02:30;5.70;99.90
29547;DHT22;40782;47.264;11.330;2024-02-28T03:04:57;5.80;99.90
29547;DHT22;40782;47.264;11.330;2024-02-28T03:07:24;5.80;99.90
29547;DHT22;40782;47.264;11.330;2024-02-28T03:09:52;5.80;99.90
29547;DHT22;40782;47.264;11.330;2024-02-28T03:12:19;5.80;99.90
29547;DHT22;40782;47.264;11.330;2024-02-28T03:14:48;5.80;99.90
29547;DHT22;40782;47.264;11.330;2024-02-28T03:17:16;5.80;99.90
29547;DHT22;40782;47.264;11.330;2024-02-28T03:19:43;5.80;99.90
29547;DHT22;40782;47.264;11.330;2024-02-28T03:22:10;5.80;99.90
29547;DHT22;40782;47.264;11.330;2024-02-28T03:24:38;5.80;99.90
29547;DHT22;40782;47.264;11.330;2024-02-28T03:27:05;5.80;99.90
29547;DHT22;40782;47.264;11.330;2024-02-28T03:29:32;5.80;99.90
29547;DHT22;40782;47.264;11.330;2024-02-28T03:32:01;5.80;99.90
29547;DHT22;40782;47.264;11.330;2024-02-28T03:34:28;5.80;99.90
29547;DHT22;40782;47.264;11.330;2024-02-28T03:36:55;5.80;99.90
29547;DHT22;40782;47.264;11.330;2024-02-28T03:39:22;5.80;99.90
29547;DHT22;40782;47.264;11.330;2024-02-28T03:41:49;5.80;99.90
29547;DHT22;40782;47.264;11.330;2024-02-28T03:44:16;5.80;99.90
29547;DHT22;40782;47.264;11.330;2024-02-28T03:46:44;5.90;99.90
29547;DHT22;40782;47.264;11.330;2024-02-28T03:49:12;5.90;99.90
29547;DHT22;40782;47.264;11.330;2024-02-28T03:51:40;5.90;99.90
29547;DHT22;40782;47.264;11.330;2024-02-28T03:54:08;5.90;99.90
29547;DHT22;40782;47.264;11.330;2024-02-28T03:56:35;5.90;99.90
29547;DHT22;40782;47.264;11.330;2024-02-28T03:59:02;5.90;99.90
29547;DHT22;40782;47.264;11.330;2024-02-28T04:01:29;5.90;99.90
29547;DHT22;40782;47.264;11.330;2024-02-28T04:03:57;5.90;99.90
29547;DHT22;40782;47.264;11.330;2024-02-28T04:06:25;5.90;99.90
29547;DHT22;40782;47.264;11.330;2024-02-28T04:08:53;5.90;99.90
29547;DHT22;40782;47.264;11.330;2024-02-28T04:11:20;5.90;99.90
29547;DHT22;40782;47.264;11.330;2024-02-28T04:13:47;5.90;99.90
29547;DHT22;40782;47.264;11.330;2024-02-28T04:16:14;5.90;99.90
29547;DHT22;40782;47.264;11.330;2024-02-28T04:18:41;5.90;99.90
29547;DHT22;40782;47.264;11.330;2024-02-28T04:21:08;6.00;99.90
29547;DHT22;40782;47.264;11.330;2024-02-28T04:23:37;6.00;99.90
29547;DHT22;40782;47.264;11.330;2024-02-28T04:26:04;5.90;99.90
29547;DHT22;40782;47.264;11.330;2024-02-28T04:28:31;6.00;99.90
29547;DHT22;40782;47.264;11.330;2024-02-28T04:30:59;5.90;99.90
29547;DHT22;40782;47.264;11.330;2024-02-28T04:33:26;5.90;99.90
29547;DHT22;40782;47.264;11.330;2024-02-28T04:35:53;5.90;99.90
29547;DHT22;40782;47.264;11.330;2024-02-28T04:38:20;5.90;99.90
29547;DHT22;40782;47.264;11.330;2024-02-28T04:40:49;5.90;99.90
29547;DHT22;40782;47.264;11.330;2024-02-28T04:43:16;5.90;99.90
29547;DHT22;40782;47.264;11.330;2024-02-28T04:45:43;6.00;99.90
29547;DHT22;40782;47.264;11.330;2024-02-28T04:48:10;5.90;99.90
29547;DHT22;40782;47.264;11.330;2024-02-28T04:50:38;5.90;99.90
29547;DHT22;40782;47.264;11.330;2024-02-28T04:53:05;5.90;99.90
29547;DHT22;40782;47.264;11.330;2024-02-28T04:55:32;5.90;99.90
29547;DHT22;40782;47.264;11.330;2024-02-28T04:58:00;5.90;99.90
29547;DHT22;40782;47.264;11.330;2024-02-28T05:00:28;5.90;99.90
29547;DHT22;40782;47.264;11.330;2024-02-28T05:02:55;5.90;99.90
29547;DHT22;40782;47.264;11.330;2024-02-28T05:05:22;5.90;99.90
29547;DHT22;40782;47.264;11.330;2024-02-28T05:07:50;5.90;99.90
29547;DHT22;40782;47.264;11.330;2024-02-28T05:10:17;5.90;99.90
29547;DHT22;40782;47.264;11.330;2024-02-28T05:12:44;5.90;99.90
29547;DHT22;40782;47.264;11.330;2024-02-28T05:15:12;5.90;99.90
29547;DHT22;40782;47.264;11.330;2024-02-28T05:17:39;5.90;99.90
29547;DHT22;40782;47.264;11.330;2024-02-28T05:20:07;5.90;99.90
29547;DHT22;40782;47.264;11.330;2024-02-28T05:22:35;5.90;99.90
29547;DHT22;40782;47.264;11.330;2024-02-28T05:25:02;5.90;99.90
29547;DHT22;40782;47.264;11.330;2024-02-28T05:27:29;5.90;99.90
29547;DHT22;40782;47.264;11.330;2024-02-28T05:29:57;5.90;99.90
29547;DHT22;40782;47.264;11.330;2024-02-28T05:32:25;5.90;99.90
29547;DHT22;40782;47.264;11.330;2024-02-28T05:34:52;5.90;99.90
29547;DHT22;40782;47.264;11.330;2024-02-28T05:37:19;5.90;99.90
29547;DHT22;40782;47.264;11.330;2024-02-28T05:39:46;5.90;99.90
29547;DHT22;40782;47.264;11.330;2024-02-28T05:42:13;5.90;99.90
29547;DHT22;40782;47.264;11.330;2024-02-28T05:44:46;5.90;99.90
29547;DHT22;40782;47.264;11.330;2024-02-28T05:47:13;5.80;99.90
29547;DHT22;40782;47.264;11.330;2024-02-28T05:49:42;5.80;99.90
29547;DHT22;40782;47.264;11.330;2024-02-28T05:52:09;5.80;99.90
29547;DHT22;40782;47.264;11.330;2024-02-28T05:54:36;5.70;99.90
29547;DHT22;40782;47.264;11.330;2024-02-28T05:57:04;5.70;99.90
29547;DHT22;40782;47.264;11.330;2024-02-28T05:59:31;5.70;99.90
29547;DHT22;40782;47.264;11.330;2024-02-28T06:01:58;5.70;99.90
29547;DHT22;40782;47.264;11.330;2024-02-28T06:04:25;5.70;99.90
29547;DHT22;40782;47.264;11.330;2024-02-28T06:06:54;5.70;99.90
29547;DHT22;40782;47.264;11.330;2024-02-28T06:09:21;5.70;99.90
29547;DHT22;40782;47.264;11.330;2024-02-28T06:11:49;5.80;99.90
29547;DHT22;40782;47.264;11.330;2024-02-28T06:14:16;5.80;99.90
29547;DHT22;40782;47.264;11.330;2024-02-28T06:16:46;5.80;99.90
29547;DHT22;40782;47.264;11.330;2024-02-28T06:19:13;5.80;99.90
29547;DHT22;40782;47.264;11.330;2024-02-28T06:21:41;5.90;99.90
29547;DHT22;40782;47.264;11.330;2024-02-28T06:24:09;5.90;99.90
29547;DHT22;40782;47.264;11.330;2024-02-28T06:26:36;5.90;99.90
29547;DHT22;40782;47.264;11.330;2024-02-28T06:29:04;5.90;99.90
29547;DHT22;40782;47.264;11.330;2024-02-28T06:31:32;5.90;99.90
29547;DHT22;40782;47.264;11.330;2024-02-28T06:33:59;6.00;99.90
29547;DHT22;40782;47.264;11.330;2024-02-28T06:36:28;6.00;99.90
29547;DHT22;40782;47.264;11.330;2024-02-28T06:38:55;6.00;99.90
29547;DHT22;40782;47.264;11.330;2024-02-28T06:41:24;6.00;99.90
29547;DHT22;40782;47.264;11.330;2024-02-28T06:43:51;6.10;99.90
29547;DHT22;40782;47.264;11.330;2024-02-28T06:46:18;6.10;99.90
29547;DHT22;40782;47.264;11.330;2024-02-28T06:48:45;6.00;99.90
29547;DHT22;40782;47.264;11.330;2024-02-28T06:51:12;6.00;99.90
29547;DHT22;40782;47.264;11.330;2024-02-28T06:53:39;6.00;99.90
29547;DHT22;40782;47.264;11.330;2024-02-28T06:56:06;6.00;99.90
29547;DHT22;40782;47.264;11.330;2024-02-28T06:58:35;6.00;99.90
29547;DHT22;40782;47.264;11.330;2024-02-28T07:01:02;6.00;99.90
29547;DHT22;40782;47.264;11.330;2024-02-28T07:03:30;6.00;99.90
29547;DHT22;40782;47.264;11.330;2024-02-28T07:05:57;6.00;99.90
29547;DHT22;40782;47.264;11.330;2024-02-28T07:08:24;6.00;99.90
29547;DHT22;40782;47.264;11.330;2024-02-28T07:10:51;6.00;99.90
29547;DHT22;40782;47.264;11.330;2024-02-28T07:13:19;6.10;99.90
29547;DHT22;40782;47.264;11.330;2024-02-28T07:15:48;6.10;99.90
29547;DHT22;40782;47.264;11.330;2024-02-28T07:18:15;6.20;99.90
29547;DHT22;40782;47.264;11.330;2024-02-28T07:20:43;6.20;99.90
29547;DHT22;40782;47.264;11.330;2024-02-28T07:23:10;6.20;99.90
29547;DHT22;40782;47.264;11.330;2024-02-28T07:25:37;6.30;99.90
29547;DHT22;40782;47.264;11.330;2024-02-28T07:28:05;6.30;99.90
29547;DHT22;40782;47.264;11.330;2024-02-28T07:30:32;6.40;99.90
29547;DHT22;40782;47.264;11.330;2024-02-28T07:33:00;6.40;99.90
29547;DHT22;40782;47.264;11.330;2024-02-28T07:35:28;6.40;99.90
29547;DHT22;40782;47.264;11.330;2024-02-28T07:37:55;6.50;99.90
29547;DHT22;40782;47.264;11.330;2024-02-28T07:40:22;6.50;99.90
29547;DHT22;40782;47.264;11.330;2024-02-28T07:42:50;6.50;99.90
29547;DHT22;40782;47.264;11.330;2024-02-28T07:45:17;6.60;99.90
29547;DHT22;40782;47.264;11.330;2024-02-28T07:47:44;6.60;99.90
29547;DHT22;40782;47.264;11.330;2024-02-28T07:50:14;6.60;99.90
29547;DHT22;40782;47.264;11.330;2024-02-28T07:52:42;6.60;99.90
29547;DHT22;40782;47.264;11.330;2024-02-28T07:55:09;6.60;99.90
29547;DHT22;40782;47.264;11.330;2024-02-28T07:57:36;6.70;99.90
29547;DHT22;40782;47.264;11.330;2024-02-28T08:00:03;6.70;99.90
29547;DHT22;40782;47.264;11.330;2024-02-28T08:02:31;6.70;99.90
29547;DHT22;40782;47.264;11.330;2024-02-28T08:04:59;6.70;99.90
29547;DHT22;40782;47.264;11.330;2024-02-28T08:07:27;6.70;99.90
29547;DHT22;40782;47.264;11.330;2024-02-28T08:09:55;6.70;99.90
29547;DHT22;40782;47.264;11.330;2024-02-28T08:12:22;6.80;99.90
29547;DHT22;40782;47.264;11.330;2024-02-28T08:14:49;6.80;99.90
29547;DHT22;40782;47.264;11.330;2024-02-28T08:17:16;6.90;99.90
29547;DHT22;40782;47.264;11.330;2024-02-28T08:19:43;6.90;99.90
29547;DHT22;40782;47.264;11.330;2024-02-28T08:22:10;6.90;99.90
29547;DHT22;40782;47.264;11.330;2024-02-28T08:24:39;6.90;99.90
29547;DHT22;40782;47.264;11.330;2024-02-28T08:27:06;6.90;99.90
29547;DHT22;40782;47.264;11.330;2024-02-28T08:29:33;6.90;99.90
29547;DHT22;40782;47.264;11.330;2024-02-28T08:32:01;6.90;99.90
29547;DHT22;40782;47.264;11.330;2024-02-28T08:34:28;6.90;99.90
29547;DHT22;40782;47.264;11.330;2024-02-28T08:36:55;6.90;99.90
29547;DHT22;40782;47.264;11.330;2024-02-28T08:39:23;7.00;99.90
29547;DHT22;40782;47.264;11.330;2024-02-28T08:41:51;7.00;99.90
29547;DHT22;40782;47.264;11.330;2024-02-28T08:44:18;7.00;99.90
29547;DHT22;40782;47.264;11.330;2024-02-28T08:46:46;7.00;99.90
29547;DHT22;40782;47.264;11.330;2024-02-28T08:49:14;7.00;99.90
29547;DHT22;40782;47.264;11.330;2024-02-28T08:51:41;7.00;99.90
29547;DHT22;40782;47.264;11.330;2024-02-28T08:54:11;7.00;99.90
29547;DHT22;40782;47.264;11.330;2024-02-28T08:56:38;7.10;99.90
29547;DHT22;40782;47.264;11.330;2024-02-28T08:59:07;7.10;99.90
29547;DHT22;40782;47.264;11.330;2024-02-28T09:01:34;7.10;99.90
29547;DHT22;40782;47.264;11.330;2024-02-28T09:04:01;7.20;99.90
29547;DHT22;40782;47.264;11.330;2024-02-28T09:06:29;7.20;99.90
29547;DHT22;40782;47.264;11.330;2024-02-28T09:08:56;7.20;99.90
29547;DHT22;40782;47.264;11.330;2024-02-28T09:11:24;7.20;99.90
29547;DHT22;40782;47.264;11.330;2024-02-28T09:13:51;7.30;99.90
29547;DHT22;40782;47.264;11.330;2024-02-28T09:16:19;7.30;99.90
29547;DHT22;40782;47.264;11.330;2024-02-28T09:18:47;7.40;99.90
29547;DHT22;40782;47.264;11.330;2024-02-28T09:21:14;7.40;99.90
29547;DHT22;40782;47.264;11.330;2024-02-28T09:23:41;7.40;99.90
29547;DHT22;40782;47.264;11.330;2024-02-28T09:26:08;7.50;99.90
29547;DHT22;40782;47.264;11.330;2024-02-28T09:28:36;7.60;99.90
29547;DHT22;40782;47.264;11.330;2024-02-28T09:31:03;7.60;99.90
29547;DHT22;40782;47.264;11.330;2024-02-28T09:33:32;7.70;99.90
29547;DHT22;40782;47.264;11.330;2024-02-28T09:36:01;7.70;99.90
29547;DHT22;40782;47.264;11.330;2024-02-28T09:38:28;7.80;99.90
29547;DHT22;40782;47.264;11.330;2024-02-28T09:40:55;7.90;99.90
29547;DHT22;40782;47.264;11.330;2024-02-28T09:43:28;7.90;99.90
29547;DHT22;40782;47.264;11.330;2024-02-28T09:45:59;8.00;99.90
29547;DHT22;40782;47.264;11.330;2024-02-28T09:48:27;8.00;99.90
29547;DHT22;40782;47.264;11.330;2024-02-28T09:50:57;8.10;99.90
29547;DHT22;40782;47.264;11.330;2024-02-28T09:53:24;8.10;99.90
29547;DHT22;40782;47.264;11.330;2024-02-28T09:55:52;8.10;99.90
29547;DHT22;40782;47.264;11.330;2024-02-28T09:58:19;8.10;99.90
29547;DHT22;40782;47.264;11.330;2024-02-28T10:00:48;8.20;99.90
29547;DHT22;40782;47.264;11.330;2024-02-28T10:03:17;8.30;99.90
29547;DHT22;40782;47.264;11.330;2024-02-28T10:05:46;8.30;99.90
29547;DHT22;40782;47.264;11.330;2024-02-28T10:08:15;8.40;99.90
29547;DHT22;40782;47.264;11.330;2024-02-28T10:10:45;8.50;99.90
29547;DHT22;40782;47.264;11.330;2024-02-28T10:13:15;8.50;99.90
29547;DHT22;40782;47.264;11.330;2024-02-28T10:15:42;8.60;99.90
29547;DHT22;40782;47.264;11.330;2024-02-28T10:18:09;8.60;99.90
29547;DHT22;40782;47.264;11.330;2024-02-28T10:20:37;8.70;99.90
29547;DHT22;40782;47.264;11.330;2024-02-28T10:23:04;8.80;99.90
29547;DHT22;40782;47.264;11.330;2024-02-28T10:25:42;8.80;99.90
29547;DHT22;40782;47.264;11.330;2024-02-28T10:28:10;8.90;99.90
29547;DHT22;40782;47.264;11.330;2024-02-28T10:30:39;9.00;99.90
29547;DHT22;40782;47.264;11.330;2024-02-28T10:33:10;9.10;99.90
29547;DHT22;40782;47.264;11.330;2024-02-28T10:35:39;9.20;99.90
29547;DHT22;40782;47.264;11.330;2024-02-28T10:38:09;9.30;99.90
29547;DHT22;40782;47.264;11.330;2024-02-28T10:40:39;9.40;99.90
29547;DHT22;40782;47.264;11.330;2024-02-28T10:43:08;9.30;99.90
29547;DHT22;40782;47.264;11.330;2024-02-28T10:45:36;9.40;99.90
29547;DHT22;40782;47.264;11.330;2024-02-28T10:48:05;9.40;99.90
29547;DHT22;40782;47.264;11.330;2024-02-28T10:50:32;9.40;98.00
29547;DHT22;40782;47.264;11.330;2024-02-28T10:53:02;9.40;95.80
29547;DHT22;40782;47.264;11.330;2024-02-28T10:55:33;9.40;93.40
29547;DHT22;40782;47.264;11.330;2024-02-28T10:58:03;9.50;85.30
29547;DHT22;40782;47.264;11.330;2024-02-28T11:00:35;9.60;88.80
29547;DHT22;40782;47.264;11.330;2024-02-28T11:03:04;9.60;86.70
29547;DHT22;40782;47.264;11.330;2024-02-28T11:05:36;9.70;77.40
29547;DHT22;40782;47.264;11.330;2024-02-28T11:08:05;9.70;81.30
29547;DHT22;40782;47.264;11.330;2024-02-28T11:10:32;9.80;72.30
29547;DHT22;40782;47.264;11.330;2024-02-28T11:13:01;9.90;78.10
29547;DHT22;40782;47.264;11.330;2024-02-28T11:15:28;10.00;77.70
29547;DHT22;40782;47.264;11.330;2024-02-28T11:18:07;10.10;75.20
29547;DHT22;40782;47.264;11.330;2024-02-28T11:20:35;10.30;65.80
29547;DHT22;40782;47.264;11.330;2024-02-28T11:23:02;10.50;43.50
29547;DHT22;40782;47.264;11.330;2024-02-28T11:25:29;10.60;37.90
29547;DHT22;40782;47.264;11.330;2024-02-28T11:27:57;10.60;40.10
29547;DHT22;40782;47.264;11.330;2024-02-28T11:30:26;10.70;35.50
29547;DHT22;40782;47.264;11.330;2024-02-28T11:32:53;10.70;27.10
29547;DHT22;40782;47.264;11.330;2024-02-28T11:35:24;10.80;25.70
29547;DHT22;40782;47.264;11.330;2024-02-28T11:37:51;10.80;24.40
29547;DHT22;40782;47.264;11.330;2024-02-28T11:40:22;10.80;21.80
29547;DHT22;40782;47.264;11.330;2024-02-28T11:42:50;11.00;22.70
29547;DHT22;40782;47.264;11.330;2024-02-28T11:45:17;11.10;22.10
29547;DHT22;40782;47.264;11.330;2024-02-28T11:47:47;11.30;14.40
29547;DHT22;40782;47.264;11.330;2024-02-28T11:50:14;11.40;11.60
29547;DHT22;40782;47.264;11.330;2024-02-28T11:52:44;11.50;4.40
29547;DHT22;40782;47.264;11.330;2024-02-28T11:55:11;11.50;4.40
29547;DHT22;40782;47.264;11.330;2024-02-28T11:57:38;11.60;4.10
29547;DHT22;40782;47.264;11.330;2024-02-28T12:00:07;11.70;3.70
29547;DHT22;40782;47.264;11.330;2024-02-28T12:02:35;11.70;5.10
29547;DHT22;40782;47.264;11.330;2024-02-28T12:05:04;11.80;1.90
29547;DHT22;40782;47.264;11.330;2024-02-28T12:07:31;11.90;2.70
29547;DHT22;40782;47.264;11.330;2024-02-28T12:09:59;12.00;3.70
29547;DHT22;40782;47.264;11.330;2024-02-28T12:12:27;12.10;3.60
29547;DHT22;40782;47.264;11.330;2024-02-28T12:14:58;12.30;1.00
29547;DHT22;40782;47.264;11.330;2024-02-28T12:17:27;12.30;1.00
29547;DHT22;40782;47.264;11.330;2024-02-28T12:19:54;12.30;1.00
29547;DHT22;40782;47.264;11.330;2024-02-28T12:22:23;12.40;1.00
29547;DHT22;40782;47.264;11.330;2024-02-28T12:24:50;12.40;1.00
29547;DHT22;40782;47.264;11.330;2024-02-28T12:27:18;12.50;1.00
29547;DHT22;40782;47.264;11.330;2024-02-28T12:29:45;12.60;1.00
29547;DHT22;40782;47.264;11.330;2024-02-28T12:32:13;12.70;1.00
29547;DHT22;40782;47.264;11.330;2024-02-28T12:34:42;12.90;1.00
29547;DHT22;40782;47.264;11.330;2024-02-28T12:37:09;13.00;1.00
29547;DHT22;40782;47.264;11.330;2024-02-28T12:39:38;13.10;1.00
29547;DHT22;40782;47.264;11.330;2024-02-28T12:42:07;13.10;1.00
29547;DHT22;40782;47.264;11.330;2024-02-28T12:44:34;13.10;1.00
29547;DHT22;40782;47.264;11.330;2024-02-28T12:47:01;13.10;1.00
29547;DHT22;40782;47.264;11.330;2024-02-28T12:49:28;13.10;1.00
29547;DHT22;40782;47.264;11.330;2024-02-28T12:51:56;13.10;1.00
29547;DHT22;40782;47.264;11.330;2024-02-28T12:54:23;13.10;1.00
29547;DHT22;40782;47.264;11.330;2024-02-28T12:56:51;13.10;1.00
29547;DHT22;40782;47.264;11.330;2024-02-28T12:59:19;13.10;1.00
29547;DHT22;40782;47.264;11.330;2024-02-28T13:01:46;13.00;1.00
29547;DHT22;40782;47.264;11.330;2024-02-28T13:04:13;13.00;1.00
29547;DHT22;40782;47.264;11.330;2024-02-28T13:06:41;13.00;1.00
29547;DHT22;40782;47.264;11.330;2024-02-28T13:09:08;12.90;1.00
29547;DHT22;40782;47.264;11.330;2024-02-28T13:11:38;12.90;1.00
29547;DHT22;40782;47.264;11.330;2024-02-28T13:14:07;13.00;1.00
29547;DHT22;40782;47.264;11.330;2024-02-28T13:16:36;13.00;1.00
29547;DHT22;40782;47.264;11.330;2024-02-28T13:19:03;13.00;1.00
29547;DHT22;40782;47.264;11.330;2024-02-28T13:21:31;13.00;1.00
29547;DHT22;40782;47.264;11.330;2024-02-28T13:24:01;13.00;1.00
29547;DHT22;40782;47.264;11.330;2024-02-28T13:26:28;13.00;1.00
29547;DHT22;40782;47.264;11.330;2024-02-28T13:28:56;12.90;1.00
29547;DHT22;40782;47.264;11.330;2024-02-28T13:31:25;12.70;1.00
29547;DHT22;40782;47.264;11.330;2024-02-28T13:33:52;12.70;1.00
29547;DHT22;40782;47.264;11.330;2024-02-28T13:36:19;12.60;1.00
29547;DHT22;40782;47.264;11.330;2024-02-28T13:38:46;12.60;1.00
29547;DHT22;40782;47.264;11.330;2024-02-28T13:41:13;12.70;1.00
29547;DHT22;40782;47.264;11.330;2024-02-28T13:43:42;12.60;1.00
29547;DHT22;40782;47.264;11.330;2024-02-28T13:46:09;12.50;1.00
29547;DHT22;40782;47.264;11.330;2024-02-28T13:48:38;12.40;1.00
29547;DHT22;40782;47.264;11.330;2024-02-28T13:51:05;12.50;1.00
29547;DHT22;40782;47.264;11.330;2024-02-28T13:53:32;12.50;1.00
29547;DHT22;40782;47.264;11.330;2024-02-28T13:56:00;12.60;1.00
29547;DHT22;40782;47.264;11.330;2024-02-28T13:58:28;12.50;1.00
29547;DHT22;40782;47.264;11.330;2024-02-28T14:00:55;12.40;1.00
29547;DHT22;40782;47.264;11.330;2024-02-28T14:03:22;12.40;1.00
29547;DHT22;40782;47.264;11.330;2024-02-28T14:05:53;12.40;1.00
29547;DHT22;40782;47.264;11.330;2024-02-28T14:08:20;12.40;1.00
29547;DHT22;40782;47.264;11.330;2024-02-28T14:10:47;12.50;1.00
29547;DHT22;40782;47.264;11.330;2024-02-28T14:13:14;12.40;1.00
29547;DHT22;40782;47.264;11.330;2024-02-28T14:15:44;12.40;1.00
29547;DHT22;40782;47.264;11.330;2024-02-28T14:18:12;12.30;1.00
29547;DHT22;40782;47.264;11.330;2024-02-28T14:20:40;12.30;1.00
29547;DHT22;40782;47.264;11.330;2024-02-28T14:23:09;12.20;1.00
29547;DHT22;40782;47.264;11.330;2024-02-28T14:25:36;12.10;1.00
29547;DHT22;40782;47.264;11.330;2024-02-28T14:28:04;11.90;1.00
29547;DHT22;40782;47.264;11.330;2024-02-28T14:30:31;11.80;1.00
29547;DHT22;40782;47.264;11.330;2024-02-28T14:32:59;11.70;1.00
29547;DHT22;40782;47.264;11.330;2024-02-28T14:35:26;11.60;1.00
29547;DHT22;40782;47.264;11.330;2024-02-28T14:37:53;11.60;1.00
29547;DHT22;40782;47.264;11.330;2024-02-28T14:40:22;11.50;1.00
29547;DHT22;40782;47.264;11.330;2024-02-28T14:42:49;11.30;1.00
29547;DHT22;40782;47.264;11.330;2024-02-28T14:45:16;11.10;1.00
29547;DHT22;40782;47.264;11.330;2024-02-28T14:47:44;11.10;1.00
29547;DHT22;40782;47.264;11.330;2024-02-28T14:50:11;11.00;1.00
29547;DHT22;40782;47.264;11.330;2024-02-28T14:52:39;10.90;1.00
29547;DHT22;40782;47.264;11.330;2024-02-28T14:55:08;10.90;1.00
29547;DHT22;40782;47.264;11.330;2024-02-28T14:57:37;10.80;1.00
29547;DHT22;40782;47.264;11.330;2024-02-28T15:00:07;10.80;1.00
29547;DHT22;40782;47.264;11.330;2024-02-28T15:02:34;10.60;1.00
29547;DHT22;40782;47.264;11.330;2024-02-28T15:05:01;10.50;1.00
29547;DHT22;40782;47.264;11.330;2024-02-28T15:07:31;10.40;1.00
29547;DHT22;40782;47.264;11.330;2024-02-28T15:09:58;10.40;1.00
29547;DHT22;40782;47.264;11.330;2024-02-28T15:12:27;10.30;1.00
29547;DHT22;40782;47.264;11.330;2024-02-28T15:14:55;10.20;1.00
29547;DHT22;40782;47.264;11.330;2024-02-28T15:17:23;10.20;1.00
29547;DHT22;40782;47.264;11.330;2024-02-28T15:19:50;10.10;1.00
29547;DHT22;40782;47.264;11.330;2024-02-28T15:22:17;10.10;1.00
29547;DHT22;40782;47.264;11.330;2024-02-28T15:24:44;10.00;1.00
29547;DHT22;40782;47.264;11.330;2024-02-28T15:27:12;9.90;1.00
29547;DHT22;40782;47.264;11.330;2024-02-28T15:29:39;9.90;1.00
29547;DHT22;40782;47.264;11.330;2024-02-28T15:32:08;9.80;1.00